sensor_id;sensor_type;location;lat;lon;timestamp;P1;durP1;ratioP1;P2;durP2;ratioP2
14276;SDS011;7222;57.346;12.150;2022-08-01T00:02:19;11.97;;;10.87;;
14276;SDS011;7222;57.346;12.150;2022-08-01T00:04:46;13.77;;;12.47;;
14276;SDS011;7222;57.346;12.150;2022-08-01T00:07:13;11.77;;;10.63;;
14276;SDS011;7222;57.346;12.150;2022-08-01T00:09:40;10.50;;;9.60;;
14276;SDS011;7222;57.346;12.150;2022-08-01T00:12:08;9.57;;;8.77;;
14276;SDS011;7222;57.346;12.150;2022-08-01T00:14:35;9.47;;;8.67;;
14276;SDS011;7222;57.346;12.150;2022-08-01T00:17:02;9.17;;;8.27;;
14276;SDS011;7222;57.346;12.150;2022-08-01T00:19:31;7.77;;;7.07;;
14276;SDS011;7222;57.346;12.150;2022-08-01T00:21:58;8.20;;;7.57;;
14276;SDS011;7222;57.346;12.150;2022-08-01T00:24:25;8.80;;;8.00;;
14276;SDS011;7222;57.346;12.150;2022-08-01T00:26:52;5.20;;;4.70;;
14276;SDS011;7222;57.346;12.150;2022-08-01T00:29:21;5.37;;;4.87;;
14276;SDS011;7222;57.346;12.150;2022-08-01T00:31:48;6.03;;;5.30;;
14276;SDS011;7222;57.346;12.150;2022-08-01T00:34:15;4.87;;;4.37;;
14276;SDS011;7222;57.346;12.150;2022-08-01T00:36:44;5.83;;;5.37;;
14276;SDS011;7222;57.346;12.150;2022-08-01T00:39:11;7.67;;;7.10;;
14276;SDS011;7222;57.346;12.150;2022-08-01T00:41:38;6.03;;;5.30;;
14276;SDS011;7222;57.346;12.150;2022-08-01T00:44:05;6.70;;;6.20;;
14276;SDS011;7222;57.346;12.150;2022-08-01T00:46:33;5.40;;;5.00;;
14276;SDS011;7222;57.346;12.150;2022-08-01T00:49:01;4.90;;;4.50;;
14276;SDS011;7222;57.346;12.150;2022-08-01T00:51:28;8.80;;;8.10;;
14276;SDS011;7222;57.346;12.150;2022-08-01T00:53:57;9.10;;;8.47;;
14276;SDS011;7222;57.346;12.150;2022-08-01T00:56:25;8.47;;;7.77;;
14276;SDS011;7222;57.346;12.150;2022-08-01T00:58:54;10.50;;;9.40;;
14276;SDS011;7222;57.346;12.150;2022-08-01T01:01:21;9.33;;;8.53;;
14276;SDS011;7222;57.346;12.150;2022-08-01T01:03:49;11.07;;;10.17;;
14276;SDS011;7222;57.346;12.150;2022-08-01T01:06:21;10.47;;;9.50;;
14276;SDS011;7222;57.346;12.150;2022-08-01T01:08:55;11.23;;;10.33;;
14276;SDS011;7222;57.346;12.150;2022-08-01T01:11:40;11.70;;;10.73;;
14276;SDS011;7222;57.346;12.150;2022-08-01T01:14:15;9.13;;;8.40;;
14276;SDS011;7222;57.346;12.150;2022-08-01T01:16:49;12.07;;;11.00;;
14276;SDS011;7222;57.346;12.150;2022-08-01T01:19:21;11.27;;;10.37;;
14276;SDS011;7222;57.346;12.150;2022-08-01T01:22:03;11.47;;;10.30;;
14276;SDS011;7222;57.346;12.150;2022-08-01T01:24:48;11.00;;;10.20;;
14276;SDS011;7222;57.346;12.150;2022-08-01T01:27:29;9.17;;;8.27;;
14276;SDS011;7222;57.346;12.150;2022-08-01T01:30:13;10.37;;;9.50;;
14276;SDS011;7222;57.346;12.150;2022-08-01T01:32:41;10.73;;;9.63;;
14276;SDS011;7222;57.346;12.150;2022-08-01T01:35:13;10.17;;;9.27;;
14276;SDS011;7222;57.346;12.150;2022-08-01T01:37:43;10.93;;;10.00;;
14276;SDS011;7222;57.346;12.150;2022-08-01T01:40:12;12.27;;;11.17;;
14276;SDS011;7222;57.346;12.150;2022-08-01T01:42:41;12.83;;;11.50;;
14276;SDS011;7222;57.346;12.150;2022-08-01T01:45:09;13.00;;;11.70;;
14276;SDS011;7222;57.346;12.150;2022-08-01T01:47:39;12.00;;;10.90;;
14276;SDS011;7222;57.346;12.150;2022-08-01T01:50:07;13.07;;;11.93;;
14276;SDS011;7222;57.346;12.150;2022-08-01T01:52:37;13.00;;;11.70;;
14276;SDS011;7222;57.346;12.150;2022-08-01T01:55:07;13.33;;;12.20;;
14276;SDS011;7222;57.346;12.150;2022-08-01T01:57:36;11.23;;;10.23;;
14276;SDS011;7222;57.346;12.150;2022-08-01T02:00:06;12.57;;;11.67;;
14276;SDS011;7222;57.346;12.150;2022-08-01T02:02:35;13.80;;;12.60;;
14276;SDS011;7222;57.346;12.150;2022-08-01T02:05:05;13.20;;;11.83;;
14276;SDS011;7222;57.346;12.150;2022-08-01T02:07:34;13.60;;;12.40;;
14276;SDS011;7222;57.346;12.150;2022-08-01T02:10:03;12.37;;;11.37;;
14276;SDS011;7222;57.346;12.150;2022-08-01T02:12:33;13.33;;;12.07;;
14276;SDS011;7222;57.346;12.150;2022-08-01T02:15:02;13.43;;;12.33;;
14276;SDS011;7222;57.346;12.150;2022-08-01T02:17:31;11.27;;;10.30;;
14276;SDS011;7222;57.346;12.150;2022-08-01T02:20:00;12.37;;;11.37;;
14276;SDS011;7222;57.346;12.150;2022-08-01T02:22:29;13.07;;;11.77;;
14276;SDS011;7222;57.346;12.150;2022-08-01T02:25:00;12.17;;;11.07;;
14276;SDS011;7222;57.346;12.150;2022-08-01T02:27:33;10.63;;;9.80;;
14276;SDS011;7222;57.346;12.150;2022-08-01T02:30:05;12.20;;;11.00;;
14276;SDS011;7222;57.346;12.150;2022-08-01T02:32:36;11.63;;;10.60;;
14276;SDS011;7222;57.346;12.150;2022-08-01T02:35:09;11.10;;;10.20;;
14276;SDS011;7222;57.346;12.150;2022-08-01T02:37:39;10.73;;;9.73;;
14276;SDS011;7222;57.346;12.150;2022-08-01T02:40:08;11.70;;;10.73;;
14276;SDS011;7222;57.346;12.150;2022-08-01T02:42:37;11.80;;;10.77;;
14276;SDS011;7222;57.346;12.150;2022-08-01T02:45:05;12.03;;;10.83;;
14276;SDS011;7222;57.346;12.150;2022-08-01T02:47:34;12.73;;;11.33;;
14276;SDS011;7222;57.346;12.150;2022-08-01T02:50:03;9.87;;;9.03;;
14276;SDS011;7222;57.346;12.150;2022-08-01T02:52:33;10.30;;;9.40;;
14276;SDS011;7222;57.346;12.150;2022-08-01T02:55:04;10.83;;;10.00;;
14276;SDS011;7222;57.346;12.150;2022-08-01T02:57:32;10.93;;;9.93;;
14276;SDS011;7222;57.346;12.150;2022-08-01T03:00:00;11.23;;;10.23;;
14276;SDS011;7222;57.346;12.150;2022-08-01T03:02:30;12.23;;;11.07;;
14276;SDS011;7222;57.346;12.150;2022-08-01T03:04:58;10.43;;;9.53;;
14276;SDS011;7222;57.346;12.150;2022-08-01T03:07:26;12.73;;;11.43;;
14276;SDS011;7222;57.346;12.150;2022-08-01T03:09:56;13.30;;;12.27;;
14276;SDS011;7222;57.346;12.150;2022-08-01T03:12:26;11.00;;;10.10;;
14276;SDS011;7222;57.346;12.150;2022-08-01T03:14:56;9.13;;;8.43;;
14276;SDS011;7222;57.346;12.150;2022-08-01T03:17:26;13.43;;;12.20;;
14276;SDS011;7222;57.346;12.150;2022-08-01T03:19:55;13.20;;;12.10;;
14276;SDS011;7222;57.346;12.150;2022-08-01T03:22:25;13.97;;;12.60;;
14276;SDS011;7222;57.346;12.150;2022-08-01T03:24:54;14.17;;;12.53;;
14276;SDS011;7222;57.346;12.150;2022-08-01T03:27:23;13.27;;;12.17;;
14276;SDS011;7222;57.346;12.150;2022-08-01T03:29:54;15.50;;;14.00;;
14276;SDS011;7222;57.346;12.150;2022-08-01T03:32:22;16.37;;;14.97;;
14276;SDS011;7222;57.346;12.150;2022-08-01T03:34:51;16.50;;;14.90;;
14276;SDS011;7222;57.346;12.150;2022-08-01T03:37:20;15.73;;;14.13;;
14276;SDS011;7222;57.346;12.150;2022-08-01T03:39:52;17.63;;;15.03;;
14276;SDS011;7222;57.346;12.150;2022-08-01T03:42:24;17.50;;;15.93;;
14276;SDS011;7222;57.346;12.150;2022-08-01T03:44:59;17.67;;;15.93;;
14276;SDS011;7222;57.346;12.150;2022-08-01T03:47:30;16.20;;;14.63;;
14276;SDS011;7222;57.346;12.150;2022-08-01T03:50:00;17.47;;;15.67;;
14276;SDS011;7222;57.346;12.150;2022-08-01T03:52:30;17.97;;;15.33;;
14276;SDS011;7222;57.346;12.150;2022-08-01T03:54:59;15.43;;;14.03;;
14276;SDS011;7222;57.346;12.150;2022-08-01T03:57:28;17.63;;;15.90;;
14276;SDS011;7222;57.346;12.150;2022-08-01T03:59:57;15.50;;;14.00;;
14276;SDS011;7222;57.346;12.150;2022-08-01T04:02:26;16.03;;;14.63;;
14276;SDS011;7222;57.346;12.150;2022-08-01T04:04:53;15.83;;;14.33;;
14276;SDS011;7222;57.346;12.150;2022-08-01T04:07:21;15.93;;;14.47;;
14276;SDS011;7222;57.346;12.150;2022-08-01T04:09:49;16.13;;;14.43;;
14276;SDS011;7222;57.346;12.150;2022-08-01T04:12:18;16.37;;;14.77;;
14276;SDS011;7222;57.346;12.150;2022-08-01T04:14:45;16.50;;;14.83;;
14276;SDS011;7222;57.346;12.150;2022-08-01T04:17:15;17.17;;;15.47;;
14276;SDS011;7222;57.346;12.150;2022-08-01T04:19:43;16.67;;;15.10;;
14276;SDS011;7222;57.346;12.150;2022-08-01T04:22:10;17.93;;;16.03;;
14276;SDS011;7222;57.346;12.150;2022-08-01T04:24:40;17.17;;;15.47;;
14276;SDS011;7222;57.346;12.150;2022-08-01T04:27:12;17.50;;;15.13;;
14276;SDS011;7222;57.346;12.150;2022-08-01T04:29:43;16.33;;;14.63;;
14276;SDS011;7222;57.346;12.150;2022-08-01T04:32:11;15.83;;;14.20;;
14276;SDS011;7222;57.346;12.150;2022-08-01T04:34:41;14.97;;;13.67;;
14276;SDS011;7222;57.346;12.150;2022-08-01T04:37:12;16.10;;;14.57;;
14276;SDS011;7222;57.346;12.150;2022-08-01T04:39:42;15.10;;;13.53;;
14276;SDS011;7222;57.346;12.150;2022-08-01T04:42:10;13.63;;;12.47;;
14276;SDS011;7222;57.346;12.150;2022-08-01T04:44:40;15.97;;;14.47;;
14276;SDS011;7222;57.346;12.150;2022-08-01T04:47:07;14.00;;;12.63;;
14276;SDS011;7222;57.346;12.150;2022-08-01T04:49:37;12.97;;;11.87;;
14276;SDS011;7222;57.346;12.150;2022-08-01T04:52:04;14.53;;;13.07;;
14276;SDS011;7222;57.346;12.150;2022-08-01T04:54:33;15.00;;;13.50;;
14276;SDS011;7222;57.346;12.150;2022-08-01T04:57:02;14.67;;;13.17;;
14276;SDS011;7222;57.346;12.150;2022-08-01T04:59:30;14.90;;;13.40;;
14276;SDS011;7222;57.346;12.150;2022-08-01T05:02:07;16.00;;;14.50;;
14276;SDS011;7222;57.346;12.150;2022-08-01T05:04:37;16.50;;;14.87;;
14276;SDS011;7222;57.346;12.150;2022-08-01T05:07:05;16.70;;;14.97;;
14276;SDS011;7222;57.346;12.150;2022-08-01T05:09:32;16.77;;;15.27;;
14276;SDS011;7222;57.346;12.150;2022-08-01T05:12:01;17.60;;;15.73;;
14276;SDS011;7222;57.346;12.150;2022-08-01T05:14:29;17.67;;;15.87;;
14276;SDS011;7222;57.346;12.150;2022-08-01T05:16:57;19.10;;;16.47;;
14276;SDS011;7222;57.346;12.150;2022-08-01T05:19:28;16.40;;;14.93;;
14276;SDS011;7222;57.346;12.150;2022-08-01T05:21:57;14.67;;;13.27;;
14276;SDS011;7222;57.346;12.150;2022-08-01T05:24:25;15.77;;;14.27;;
14276;SDS011;7222;57.346;12.150;2022-08-01T05:26:53;16.17;;;14.43;;
14276;SDS011;7222;57.346;12.150;2022-08-01T05:29:20;15.03;;;13.70;;
14276;SDS011;7222;57.346;12.150;2022-08-01T05:31:48;16.80;;;15.30;;
14276;SDS011;7222;57.346;12.150;2022-08-01T05:34:15;17.40;;;15.83;;
14276;SDS011;7222;57.346;12.150;2022-08-01T05:36:42;12.63;;;11.43;;
14276;SDS011;7222;57.346;12.150;2022-08-01T05:39:11;10.87;;;9.23;;
14276;SDS011;7222;57.346;12.150;2022-08-01T05:41:38;10.83;;;9.73;;
14276;SDS011;7222;57.346;12.150;2022-08-01T05:44:06;7.27;;;6.67;;
14276;SDS011;7222;57.346;12.150;2022-08-01T05:46:34;6.93;;;6.30;;
14276;SDS011;7222;57.346;12.150;2022-08-01T05:49:02;7.00;;;6.40;;
14276;SDS011;7222;57.346;12.150;2022-08-01T05:51:30;6.33;;;5.77;;
14276;SDS011;7222;57.346;12.150;2022-08-01T05:53:58;5.90;;;5.30;;
14276;SDS011;7222;57.346;12.150;2022-08-01T05:56:27;5.73;;;5.23;;
14276;SDS011;7222;57.346;12.150;2022-08-01T05:58:54;4.87;;;4.20;;
14276;SDS011;7222;57.346;12.150;2022-08-01T06:01:21;4.47;;;4.07;;
14276;SDS011;7222;57.346;12.150;2022-08-01T06:03:48;7.10;;;5.37;;
14276;SDS011;7222;57.346;12.150;2022-08-01T06:06:15;5.57;;;5.00;;
14276;SDS011;7222;57.346;12.150;2022-08-01T06:08:42;5.90;;;5.30;;
14276;SDS011;7222;57.346;12.150;2022-08-01T06:11:09;5.70;;;5.23;;
14276;SDS011;7222;57.346;12.150;2022-08-01T06:13:38;6.43;;;4.80;;
14276;SDS011;7222;57.346;12.150;2022-08-01T06:16:05;5.20;;;4.70;;
14276;SDS011;7222;57.346;12.150;2022-08-01T06:18:32;5.60;;;5.10;;
14276;SDS011;7222;57.346;12.150;2022-08-01T06:20:59;4.57;;;4.20;;
14276;SDS011;7222;57.346;12.150;2022-08-01T06:23:26;5.60;;;5.10;;
14276;SDS011;7222;57.346;12.150;2022-08-01T06:25:59;4.93;;;4.53;;
14276;SDS011;7222;57.346;12.150;2022-08-01T06:28:27;6.27;;;5.10;;
14276;SDS011;7222;57.346;12.150;2022-08-01T06:30:56;5.73;;;4.40;;
14276;SDS011;7222;57.346;12.150;2022-08-01T06:33:24;4.60;;;4.20;;
14276;SDS011;7222;57.346;12.150;2022-08-01T06:35:51;4.30;;;3.90;;
14276;SDS011;7222;57.346;12.150;2022-08-01T06:38:18;4.57;;;4.10;;
14276;SDS011;7222;57.346;12.150;2022-08-01T06:40:55;4.37;;;3.50;;
14276;SDS011;7222;57.346;12.150;2022-08-01T06:43:22;4.70;;;4.20;;
14276;SDS011;7222;57.346;12.150;2022-08-01T06:45:49;4.70;;;3.73;;
14276;SDS011;7222;57.346;12.150;2022-08-01T06:48:18;3.83;;;3.40;;
14276;SDS011;7222;57.346;12.150;2022-08-01T06:50:45;4.10;;;3.50;;
14276;SDS011;7222;57.346;12.150;2022-08-01T06:53:12;4.67;;;3.30;;
14276;SDS011;7222;57.346;12.150;2022-08-01T06:55:39;3.67;;;3.00;;
14276;SDS011;7222;57.346;12.150;2022-08-01T06:58:06;3.97;;;3.07;;
14276;SDS011;7222;57.346;12.150;2022-08-01T07:00:34;3.40;;;2.87;;
14276;SDS011;7222;57.346;12.150;2022-08-01T07:03:01;3.50;;;3.20;;
14276;SDS011;7222;57.346;12.150;2022-08-01T07:05:29;4.10;;;2.90;;
14276;SDS011;7222;57.346;12.150;2022-08-01T07:07:56;5.20;;;3.40;;
14276;SDS011;7222;57.346;12.150;2022-08-01T07:10:24;3.60;;;3.17;;
14276;SDS011;7222;57.346;12.150;2022-08-01T07:12:51;6.43;;;3.30;;
14276;SDS011;7222;57.346;12.150;2022-08-01T07:15:18;4.47;;;3.03;;
14276;SDS011;7222;57.346;12.150;2022-08-01T07:17:51;5.00;;;3.57;;
14276;SDS011;7222;57.346;12.150;2022-08-01T07:20:18;5.43;;;3.03;;
14276;SDS011;7222;57.346;12.150;2022-08-01T07:22:47;4.90;;;3.23;;
14276;SDS011;7222;57.346;12.150;2022-08-01T07:25:14;4.00;;;3.23;;
14276;SDS011;7222;57.346;12.150;2022-08-01T07:27:41;4.17;;;3.30;;
14276;SDS011;7222;57.346;12.150;2022-08-01T07:30:11;6.20;;;3.00;;
14276;SDS011;7222;57.346;12.150;2022-08-01T07:32:39;6.87;;;3.40;;
14276;SDS011;7222;57.346;12.150;2022-08-01T07:35:06;4.80;;;2.77;;
14276;SDS011;7222;57.346;12.150;2022-08-01T07:37:34;6.53;;;3.20;;
14276;SDS011;7222;57.346;12.150;2022-08-01T07:40:03;4.73;;;2.90;;
14276;SDS011;7222;57.346;12.150;2022-08-01T07:42:30;5.00;;;3.20;;
14276;SDS011;7222;57.346;12.150;2022-08-01T07:44:57;4.43;;;3.40;;
14276;SDS011;7222;57.346;12.150;2022-08-01T07:47:25;3.63;;;3.00;;
14276;SDS011;7222;57.346;12.150;2022-08-01T07:49:58;7.43;;;3.30;;
14276;SDS011;7222;57.346;12.150;2022-08-01T07:52:26;4.43;;;2.67;;
14276;SDS011;7222;57.346;12.150;2022-08-01T07:54:53;7.10;;;2.93;;
14276;SDS011;7222;57.346;12.150;2022-08-01T07:57:22;7.50;;;3.63;;
14276;SDS011;7222;57.346;12.150;2022-08-01T07:59:50;10.57;;;3.67;;
14276;SDS011;7222;57.346;12.150;2022-08-01T08:02:17;9.67;;;3.80;;
14276;SDS011;7222;57.346;12.150;2022-08-01T08:04:44;5.17;;;3.33;;
14276;SDS011;7222;57.346;12.150;2022-08-01T08:07:11;5.23;;;3.33;;
14276;SDS011;7222;57.346;12.150;2022-08-01T08:09:39;6.20;;;3.50;;
14276;SDS011;7222;57.346;12.150;2022-08-01T08:12:10;9.10;;;3.57;;
14276;SDS011;7222;57.346;12.150;2022-08-01T08:14:38;4.93;;;3.30;;
14276;SDS011;7222;57.346;12.150;2022-08-01T08:17:05;6.53;;;3.63;;
14276;SDS011;7222;57.346;12.150;2022-08-01T08:19:33;9.70;;;3.57;;
14276;SDS011;7222;57.346;12.150;2022-08-01T08:22:02;6.70;;;3.30;;
14276;SDS011;7222;57.346;12.150;2022-08-01T08:24:29;4.67;;;3.30;;
14276;SDS011;7222;57.346;12.150;2022-08-01T08:26:57;6.97;;;3.60;;
14276;SDS011;7222;57.346;12.150;2022-08-01T08:29:25;7.87;;;3.50;;
14276;SDS011;7222;57.346;12.150;2022-08-01T08:31:56;7.70;;;3.97;;
14276;SDS011;7222;57.346;12.150;2022-08-01T08:34:23;6.67;;;3.53;;
14276;SDS011;7222;57.346;12.150;2022-08-01T08:36:51;9.67;;;3.83;;
14276;SDS011;7222;57.346;12.150;2022-08-01T08:39:19;7.30;;;3.50;;
14276;SDS011;7222;57.346;12.150;2022-08-01T08:41:47;6.13;;;3.00;;
14276;SDS011;7222;57.346;12.150;2022-08-01T08:44:14;5.70;;;3.00;;
14276;SDS011;7222;57.346;12.150;2022-08-01T08:46:42;4.13;;;2.40;;
14276;SDS011;7222;57.346;12.150;2022-08-01T08:49:18;9.20;;;3.20;;
14276;SDS011;7222;57.346;12.150;2022-08-01T08:51:51;7.00;;;3.13;;
14276;SDS011;7222;57.346;12.150;2022-08-01T08:54:33;7.40;;;3.20;;
14276;SDS011;7222;57.346;12.150;2022-08-01T08:57:02;8.10;;;3.80;;
14276;SDS011;7222;57.346;12.150;2022-08-01T08:59:30;10.20;;;3.70;;
14276;SDS011;7222;57.346;12.150;2022-08-01T09:01:58;7.53;;;3.07;;
14276;SDS011;7222;57.346;12.150;2022-08-01T09:04:26;7.23;;;3.20;;
14276;SDS011;7222;57.346;12.150;2022-08-01T09:06:54;12.77;;;3.50;;
14276;SDS011;7222;57.346;12.150;2022-08-01T09:09:21;8.57;;;3.67;;
14276;SDS011;7222;57.346;12.150;2022-08-01T09:11:48;11.00;;;3.77;;
14276;SDS011;7222;57.346;12.150;2022-08-01T09:14:16;6.77;;;2.93;;
14276;SDS011;7222;57.346;12.150;2022-08-01T09:16:58;10.40;;;3.53;;
14276;SDS011;7222;57.346;12.150;2022-08-01T09:19:34;6.73;;;3.40;;
14276;SDS011;7222;57.346;12.150;2022-08-01T09:22:04;8.37;;;2.87;;
14276;SDS011;7222;57.346;12.150;2022-08-01T09:24:33;9.43;;;3.27;;
14276;SDS011;7222;57.346;12.150;2022-08-01T09:27:00;7.90;;;3.47;;
14276;SDS011;7222;57.346;12.150;2022-08-01T09:29:41;6.93;;;2.97;;
14276;SDS011;7222;57.346;12.150;2022-08-01T09:32:09;8.80;;;3.63;;
14276;SDS011;7222;57.346;12.150;2022-08-01T09:34:38;7.00;;;3.03;;
14276;SDS011;7222;57.346;12.150;2022-08-01T09:37:05;8.00;;;3.23;;
14276;SDS011;7222;57.346;12.150;2022-08-01T09:39:33;10.57;;;3.70;;
14276;SDS011;7222;57.346;12.150;2022-08-01T09:44:46;9.37;;;3.80;;
14276;SDS011;7222;57.346;12.150;2022-08-01T09:47:14;6.07;;;3.23;;
14276;SDS011;7222;57.346;12.150;2022-08-01T09:49:44;7.17;;;3.03;;
14276;SDS011;7222;57.346;12.150;2022-08-01T09:52:12;5.70;;;2.60;;
14276;SDS011;7222;57.346;12.150;2022-08-01T09:54:40;7.87;;;2.90;;
14276;SDS011;7222;57.346;12.150;2022-08-01T09:57:09;8.63;;;2.33;;
14276;SDS011;7222;57.346;12.150;2022-08-01T09:59:39;6.40;;;3.30;;
14276;SDS011;7222;57.346;12.150;2022-08-01T10:02:08;5.63;;;2.77;;
14276;SDS011;7222;57.346;12.150;2022-08-01T10:04:46;7.90;;;2.97;;
14276;SDS011;7222;57.346;12.150;2022-08-01T10:07:14;6.67;;;2.83;;
14276;SDS011;7222;57.346;12.150;2022-08-01T10:09:42;6.97;;;2.80;;
14276;SDS011;7222;57.346;12.150;2022-08-01T10:12:10;8.30;;;2.87;;
14276;SDS011;7222;57.346;12.150;2022-08-01T10:14:39;7.80;;;2.80;;
14276;SDS011;7222;57.346;12.150;2022-08-01T10:17:08;6.07;;;3.00;;
14276;SDS011;7222;57.346;12.150;2022-08-01T10:19:37;4.43;;;2.70;;
14276;SDS011;7222;57.346;12.150;2022-08-01T10:22:09;7.73;;;3.00;;
14276;SDS011;7222;57.346;12.150;2022-08-01T10:24:39;5.83;;;2.90;;
14276;SDS011;7222;57.346;12.150;2022-08-01T10:27:07;10.50;;;3.40;;
14276;SDS011;7222;57.346;12.150;2022-08-01T10:29:36;6.43;;;2.67;;
14276;SDS011;7222;57.346;12.150;2022-08-01T10:32:07;6.37;;;2.27;;
14276;SDS011;7222;57.346;12.150;2022-08-01T10:34:35;7.67;;;2.63;;
14276;SDS011;7222;57.346;12.150;2022-08-01T10:37:03;8.00;;;3.20;;
14276;SDS011;7222;57.346;12.150;2022-08-01T10:39:32;7.20;;;2.80;;
14276;SDS011;7222;57.346;12.150;2022-08-01T10:41:59;7.90;;;2.63;;
14276;SDS011;7222;57.346;12.150;2022-08-01T10:44:27;8.90;;;3.27;;
14276;SDS011;7222;57.346;12.150;2022-08-01T10:46:57;6.70;;;2.50;;
14276;SDS011;7222;57.346;12.150;2022-08-01T10:49:30;7.33;;;2.50;;
14276;SDS011;7222;57.346;12.150;2022-08-01T10:52:01;5.70;;;2.90;;
14276;SDS011;7222;57.346;12.150;2022-08-01T10:54:29;8.00;;;2.43;;
14276;SDS011;7222;57.346;12.150;2022-08-01T10:57:06;7.57;;;2.37;;
14276;SDS011;7222;57.346;12.150;2022-08-01T10:59:35;5.87;;;2.50;;
14276;SDS011;7222;57.346;12.150;2022-08-01T11:02:13;4.73;;;2.77;;
14276;SDS011;7222;57.346;12.150;2022-08-01T11:04:54;3.50;;;2.37;;
14276;SDS011;7222;57.346;12.150;2022-08-01T11:07:24;5.37;;;2.53;;
14276;SDS011;7222;57.346;12.150;2022-08-01T11:10:10;8.03;;;2.23;;
14276;SDS011;7222;57.346;12.150;2022-08-01T11:12:45;4.93;;;2.30;;
14276;SDS011;7222;57.346;12.150;2022-08-01T11:15:22;5.73;;;2.23;;
14276;SDS011;7222;57.346;12.150;2022-08-01T11:17:53;5.43;;;2.53;;
14276;SDS011;7222;57.346;12.150;2022-08-01T11:20:21;5.53;;;2.40;;
14276;SDS011;7222;57.346;12.150;2022-08-01T11:26:08;5.07;;;2.40;;
14276;SDS011;7222;57.346;12.150;2022-08-01T11:28:41;5.33;;;2.27;;
14276;SDS011;7222;57.346;12.150;2022-08-01T11:31:28;6.00;;;2.67;;
14276;SDS011;7222;57.346;12.150;2022-08-01T11:33:56;6.17;;;2.57;;
14276;SDS011;7222;57.346;12.150;2022-08-01T11:36:25;5.00;;;2.00;;
14276;SDS011;7222;57.346;12.150;2022-08-01T11:41:42;5.30;;;2.30;;
14276;SDS011;7222;57.346;12.150;2022-08-01T11:44:11;5.07;;;2.60;;
14276;SDS011;7222;57.346;12.150;2022-08-01T11:46:47;11.10;;;2.80;;
14276;SDS011;7222;57.346;12.150;2022-08-01T11:49:28;6.43;;;2.33;;
14276;SDS011;7222;57.346;12.150;2022-08-01T11:52:02;5.53;;;2.20;;
14276;SDS011;7222;57.346;12.150;2022-08-01T11:54:32;7.07;;;2.47;;
14276;SDS011;7222;57.346;12.150;2022-08-01T11:57:03;6.80;;;2.60;;
14276;SDS011;7222;57.346;12.150;2022-08-01T11:59:41;6.50;;;2.70;;
14276;SDS011;7222;57.346;12.150;2022-08-01T12:02:17;5.30;;;2.75;;
14276;SDS011;7222;57.346;12.150;2022-08-01T12:04:47;3.88;;;1.90;;
14276;SDS011;7222;57.346;12.150;2022-08-01T12:07:15;3.20;;;2.13;;
14276;SDS011;7222;57.346;12.150;2022-08-01T12:09:43;4.72;;;2.10;;
14276;SDS011;7222;57.346;12.150;2022-08-01T12:12:13;6.68;;;1.90;;
14276;SDS011;7222;57.346;12.150;2022-08-01T12:14:43;4.15;;;2.33;;
14276;SDS011;7222;57.346;12.150;2022-08-01T12:17:11;6.50;;;2.65;;
14276;SDS011;7222;57.346;12.150;2022-08-01T12:19:38;3.97;;;1.92;;
14276;SDS011;7222;57.346;12.150;2022-08-01T12:22:11;6.72;;;2.20;;
14276;SDS011;7222;57.346;12.150;2022-08-01T12:24:39;5.22;;;2.10;;
14276;SDS011;7222;57.346;12.150;2022-08-01T12:27:09;5.72;;;1.98;;
14276;SDS011;7222;57.346;12.150;2022-08-01T12:29:39;5.15;;;2.30;;
14276;SDS011;7222;57.346;12.150;2022-08-01T12:32:21;4.70;;;2.47;;
14276;SDS011;7222;57.346;12.150;2022-08-01T12:34:50;4.32;;;2.00;;
14276;SDS011;7222;57.346;12.150;2022-08-01T12:37:18;4.63;;;2.30;;
14276;SDS011;7222;57.346;12.150;2022-08-01T12:39:45;6.25;;;2.20;;
14276;SDS011;7222;57.346;12.150;2022-08-01T12:42:13;3.80;;;1.70;;
14276;SDS011;7222;57.346;12.150;2022-08-01T12:44:43;6.07;;;2.22;;
14276;SDS011;7222;57.346;12.150;2022-08-01T12:47:12;3.50;;;1.70;;
14276;SDS011;7222;57.346;12.150;2022-08-01T12:49:41;4.63;;;2.00;;
14276;SDS011;7222;57.346;12.150;2022-08-01T12:52:09;4.75;;;2.10;;
14276;SDS011;7222;57.346;12.150;2022-08-01T12:57:26;4.97;;;2.10;;
14276;SDS011;7222;57.346;12.150;2022-08-01T13:00:05;5.88;;;2.10;;
14276;SDS011;7222;57.346;12.150;2022-08-01T13:02:36;4.85;;;2.03;;
14276;SDS011;7222;57.346;12.150;2022-08-01T13:05:04;7.90;;;2.05;;
14276;SDS011;7222;57.346;12.150;2022-08-01T13:07:39;5.50;;;1.80;;
14276;SDS011;7222;57.346;12.150;2022-08-01T13:10:11;4.63;;;2.00;;
14276;SDS011;7222;57.346;12.150;2022-08-01T13:12:40;4.90;;;1.80;;
14276;SDS011;7222;57.346;12.150;2022-08-01T13:15:25;4.30;;;2.05;;
14276;SDS011;7222;57.346;12.150;2022-08-01T13:17:56;4.35;;;1.90;;
14276;SDS011;7222;57.346;12.150;2022-08-01T13:20:31;4.72;;;2.08;;
14276;SDS011;7222;57.346;12.150;2022-08-01T13:23:10;2.78;;;1.85;;
14276;SDS011;7222;57.346;12.150;2022-08-01T13:25:51;3.72;;;1.83;;
14276;SDS011;7222;57.346;12.150;2022-08-01T13:28:20;2.40;;;1.73;;
14276;SDS011;7222;57.346;12.150;2022-08-01T13:30:54;3.72;;;1.80;;
14276;SDS011;7222;57.346;12.150;2022-08-01T13:33:23;4.03;;;1.77;;
14276;SDS011;7222;57.346;12.150;2022-08-01T13:35:51;3.17;;;1.80;;
14276;SDS011;7222;57.346;12.150;2022-08-01T13:38:18;3.17;;;1.80;;
14276;SDS011;7222;57.346;12.150;2022-08-01T13:41:05;4.68;;;2.08;;
14276;SDS011;7222;57.346;12.150;2022-08-01T13:43:33;3.70;;;1.80;;
14276;SDS011;7222;57.346;12.150;2022-08-01T13:46:02;4.18;;;2.05;;
14276;SDS011;7222;57.346;12.150;2022-08-01T13:48:30;4.10;;;2.00;;
14276;SDS011;7222;57.346;12.150;2022-08-01T13:50:58;2.38;;;1.90;;
14276;SDS011;7222;57.346;12.150;2022-08-01T13:53:25;5.03;;;2.08;;
14276;SDS011;7222;57.346;12.150;2022-08-01T13:55:52;5.80;;;1.80;;
14276;SDS011;7222;57.346;12.150;2022-08-01T13:58:19;2.08;;;1.65;;
14276;SDS011;7222;57.346;12.150;2022-08-01T14:00:46;5.45;;;1.83;;
14276;SDS011;7222;57.346;12.150;2022-08-01T14:03:15;3.55;;;1.90;;
14276;SDS011;7222;57.346;12.150;2022-08-01T14:05:42;3.05;;;1.92;;
14276;SDS011;7222;57.346;12.150;2022-08-01T14:08:09;5.78;;;2.20;;
14276;SDS011;7222;57.346;12.150;2022-08-01T14:10:36;5.07;;;1.70;;
14276;SDS011;7222;57.346;12.150;2022-08-01T14:13:03;3.50;;;1.92;;
14276;SDS011;7222;57.346;12.150;2022-08-01T14:15:30;3.30;;;2.10;;
14276;SDS011;7222;57.346;12.150;2022-08-01T14:17:58;3.83;;;1.80;;
14276;SDS011;7222;57.346;12.150;2022-08-01T14:20:26;5.03;;;1.80;;
14276;SDS011;7222;57.346;12.150;2022-08-01T14:22:53;5.17;;;2.00;;
14276;SDS011;7222;57.346;12.150;2022-08-01T14:25:20;3.40;;;1.77;;
14276;SDS011;7222;57.346;12.150;2022-08-01T14:27:47;4.03;;;1.87;;
14276;SDS011;7222;57.346;12.150;2022-08-01T14:30:14;3.27;;;1.60;;
14276;SDS011;7222;57.346;12.150;2022-08-01T14:32:40;2.30;;;1.75;;
14276;SDS011;7222;57.346;12.150;2022-08-01T14:35:07;3.73;;;1.83;;
14276;SDS011;7222;57.346;12.150;2022-08-01T14:37:36;3.77;;;1.90;;
14276;SDS011;7222;57.346;12.150;2022-08-01T14:40:03;4.23;;;2.00;;
14276;SDS011;7222;57.346;12.150;2022-08-01T14:42:34;2.73;;;1.70;;
14276;SDS011;7222;57.346;12.150;2022-08-01T14:45:01;4.40;;;1.90;;
14276;SDS011;7222;57.346;12.150;2022-08-01T14:47:33;7.50;;;5.67;;
14276;SDS011;7222;57.346;12.150;2022-08-01T14:50:01;4.20;;;3.30;;
14276;SDS011;7222;57.346;12.150;2022-08-01T14:52:28;3.77;;;2.80;;
14276;SDS011;7222;57.346;12.150;2022-08-01T14:54:56;3.23;;;2.30;;
14276;SDS011;7222;57.346;12.150;2022-08-01T14:57:23;3.00;;;2.70;;
14276;SDS011;7222;57.346;12.150;2022-08-01T14:59:50;3.40;;;2.50;;
14276;SDS011;7222;57.346;12.150;2022-08-01T15:02:17;8.80;;;8.10;;
14276;SDS011;7222;57.346;12.150;2022-08-01T15:04:45;9.53;;;8.73;;
14276;SDS011;7222;57.346;12.150;2022-08-01T15:07:12;4.87;;;4.27;;